createdAt,value
2019-06-27T00:00:52.492Z,96.74
2019-06-27T00:03:20.897Z,97.24
2019-06-27T00:05:49.333Z,98.09
2019-06-27T00:08:17.693Z,94.10
2019-06-27T00:10:46.041Z,97.15
2019-06-27T00:13:14.447Z,95.56
2019-06-27T00:15:42.800Z,95.71
2019-06-27T00:18:11.203Z,93.45
2019-06-27T00:20:39.557Z,95.34
2019-06-27T00:23:07.932Z,97.39
2019-06-27T00:25:36.307Z,98.84
2019-06-27T00:28:04.688Z,99.25
2019-06-27T00:30:33.030Z,98.99
2019-06-27T00:33:01.409Z,97.90
2019-06-27T00:35:29.782Z,96.97
2019-06-27T00:37:59.091Z,97.27
2019-06-27T00:40:27.418Z,95.97
2019-06-27T00:42:55.805Z,94.55
2019-06-27T00:45:24.155Z,93.00
2019-06-27T00:47:52.519Z,93.12
2019-06-27T00:50:20.886Z,91.71
2019-06-27T00:52:49.256Z,92.95
2019-06-27T00:57:58.705Z,91.24
2019-06-27T01:00:27.078Z,90.28
2019-06-27T01:05:29.752Z,91.06
2019-06-27T01:07:58.162Z,90.92
2019-06-27T01:10:27.410Z,92.08
2019-06-27T01:12:55.783Z,92.89
2019-06-27T01:15:24.205Z,92.45
2019-06-27T01:17:52.497Z,91.00
2019-06-27T01:22:57.167Z,92.53
2019-06-27T01:25:25.554Z,93.41
2019-06-27T01:27:53.898Z,93.02
2019-06-27T01:30:22.246Z,95.02
2019-06-27T01:35:25.735Z,93.53
2019-06-27T01:37:54.097Z,92.68
2019-06-27T01:40:22.480Z,92.29
2019-06-27T01:42:50.845Z,94.91
2019-06-27T01:45:22.665Z,93.11
2019-06-27T01:47:51.029Z,94.97
2019-06-27T01:50:20.389Z,96.68
2019-06-27T01:52:48.776Z,96.85
2019-06-27T01:55:17.123Z,97.73
2019-06-27T01:57:47.076Z,97.36
2019-06-27T02:00:13.893Z,97.13
2019-06-27T02:02:42.268Z,96.42
2019-06-27T02:05:10.636Z,95.01
2019-06-27T02:07:38.995Z,94.92
2019-06-27T02:10:07.397Z,94.48
2019-06-27T02:12:35.747Z,92.86
2019-06-27T02:15:04.831Z,92.61
2019-06-27T02:17:33.188Z,92.38
2019-06-27T02:22:35.880Z,93.98
2019-06-27T02:25:04.250Z,92.18
2019-06-27T02:27:32.585Z,91.63
2019-06-27T02:30:01.045Z,91.94
2019-06-27T02:32:29.423Z,92.54
2019-06-27T02:34:57.764Z,92.75
2019-06-27T02:37:26.149Z,91.90
2019-06-27T02:39:54.519Z,92.34
2019-06-27T02:42:23.053Z,91.73
2019-06-27T02:44:51.428Z,94.59
2019-06-27T02:47:19.798Z,96.41
2019-06-27T02:52:22.451Z,100.00
2019-06-27T02:54:58.926Z,100.00
2019-06-27T02:57:27.316Z,100.00
2019-06-27T03:02:30.026Z,100.00
2019-06-27T03:04:58.423Z,100.00
2019-06-27T03:07:26.795Z,99.51
2019-06-27T03:09:55.190Z,100.00
2019-06-27T03:12:23.611Z,100.00
2019-06-27T03:14:51.982Z,100.00
2019-06-27T03:17:20.441Z,100.00
2019-06-27T03:19:48.787Z,100.00
2019-06-27T03:22:17.171Z,100.00
2019-06-27T03:24:45.550Z,100.00
2019-06-27T03:27:13.938Z,100.00
2019-06-27T03:32:16.660Z,100.00
2019-06-27T03:34:45.033Z,100.00
2019-06-27T03:37:13.449Z,100.00
2019-06-27T03:39:41.834Z,100.00
2019-06-27T03:42:10.216Z,100.00
2019-06-27T03:44:38.618Z,100.00
2019-06-27T03:47:07.017Z,100.00
2019-06-27T03:49:35.377Z,100.00
2019-06-27T03:52:03.789Z,99.94
2019-06-27T03:57:06.443Z,99.58
2019-06-27T03:59:34.823Z,99.47
2019-06-27T04:02:03.217Z,98.19
2019-06-27T04:04:31.571Z,99.57
2019-06-27T04:06:59.926Z,99.12
2019-06-27T04:09:28.310Z,98.87
2019-06-27T04:11:56.726Z,99.07
2019-06-27T04:14:25.083Z,98.54
2019-06-27T04:16:53.439Z,98.64
2019-06-27T04:19:21.872Z,98.71
2019-06-27T04:21:50.234Z,98.41
2019-06-27T04:26:52.923Z,98.08
2019-06-27T04:29:33.561Z,98.17
2019-06-27T04:31:49.749Z,98.85
2019-06-27T04:34:19.893Z,98.78
2019-06-27T04:36:46.417Z,98.46
2019-06-27T04:39:14.818Z,98.04
2019-06-27T04:41:43.177Z,98.29
2019-06-27T04:44:11.564Z,98.30
2019-06-27T04:46:39.927Z,97.78
2019-06-27T04:49:13.014Z,97.04
2019-06-27T04:51:36.661Z,95.83
2019-06-27T04:54:05.039Z,94.21
2019-06-27T04:56:33.411Z,93.26
2019-06-27T04:59:01.778Z,92.40
2019-06-27T05:04:04.457Z,91.27
2019-06-27T05:06:33.778Z,88.94
2019-06-27T05:09:02.133Z,87.28
2019-06-27T05:11:49.736Z,86.93
2019-06-27T05:14:23.493Z,85.15
2019-06-27T05:16:52.775Z,84.65
2019-06-27T05:21:55.512Z,82.58
2019-06-27T05:24:23.905Z,82.13
2019-06-27T05:26:52.245Z,81.69
2019-06-27T05:29:20.609Z,80.57
2019-06-27T05:31:48.982Z,80.01
2019-06-27T05:34:17.337Z,78.76
2019-06-27T05:36:45.695Z,78.21
2019-06-27T05:41:52.268Z,78.12
2019-06-27T05:44:22.715Z,78.12
2019-06-27T05:46:51.065Z,77.54
2019-06-27T05:49:40.817Z,77.61
2019-06-27T05:52:09.167Z,76.55
2019-06-27T05:54:37.528Z,73.68
2019-06-27T05:57:05.881Z,74.19
2019-06-27T05:59:51.290Z,73.25
2019-06-27T06:02:19.658Z,72.54
2019-06-27T06:04:54.184Z,71.49
2019-06-27T06:07:22.529Z,70.01
2019-06-27T06:12:30.194Z,69.96
2019-06-27T06:14:58.561Z,70.30
2019-06-27T06:17:26.955Z,70.34
2019-06-27T06:22:29.565Z,66.64
2019-06-27T06:24:58.382Z,67.62
2019-06-27T06:27:26.307Z,66.44
2019-06-27T06:29:54.665Z,67.02
2019-06-27T06:32:23.038Z,68.37
2019-06-27T06:34:51.422Z,67.31
2019-06-27T06:37:19.764Z,68.89
2019-06-27T06:39:48.185Z,68.47
2019-06-27T06:42:16.561Z,67.82
2019-06-27T06:44:48.757Z,67.66
2019-06-27T06:47:17.136Z,67.98
2019-06-27T06:49:47.505Z,67.25
2019-06-27T06:52:15.883Z,67.12
2019-06-27T06:54:50.194Z,67.99
2019-06-27T06:57:18.564Z,68.55
2019-06-27T07:00:03.540Z,66.46
2019-06-27T07:02:35.888Z,67.13
2019-06-27T07:05:07.864Z,67.63
2019-06-27T07:07:53.006Z,66.76
2019-06-27T07:10:21.381Z,65.71
2019-06-27T07:13:09.277Z,66.65
2019-06-27T07:15:38.792Z,65.76
2019-06-27T07:18:10.518Z,64.95
2019-06-27T07:20:42.394Z,67.87
2019-06-27T07:23:11.756Z,66.15
2019-06-27T07:25:40.146Z,65.69
2019-06-27T07:28:08.624Z,65.23
2019-06-27T07:30:56.313Z,65.68
2019-06-27T07:33:24.682Z,65.67
2019-06-27T07:38:27.462Z,66.93
2019-06-27T07:40:59.174Z,67.22
2019-06-27T07:43:27.533Z,65.39
2019-06-27T07:45:59.529Z,64.96
2019-06-27T07:48:27.889Z,63.16
2019-06-27T07:51:06.953Z,64.17
2019-06-27T07:53:35.311Z,62.39
2019-06-27T07:56:09.572Z,61.17
2019-06-27T08:01:12.236Z,61.71
2019-06-27T08:03:40.600Z,62.60
2019-06-27T08:06:09.891Z,60.77
2019-06-27T08:11:12.636Z,59.41
2019-06-27T08:13:41.864Z,60.04
2019-06-27T08:16:10.227Z,60.63
2019-06-27T08:18:38.579Z,59.59
2019-06-27T08:21:20.514Z,57.27
2019-06-27T08:23:48.860Z,57.97
2019-06-27T08:26:20.642Z,57.66
2019-06-27T08:28:50.894Z,55.47
2019-06-27T08:31:19.318Z,54.80
2019-06-27T08:33:50.900Z,55.69
2019-06-27T08:36:19.265Z,54.42
2019-06-27T08:39:04.788Z,55.54
2019-06-27T08:44:07.508Z,54.01
2019-06-27T08:46:39.344Z,54.49
2019-06-27T08:49:07.690Z,54.15
2019-06-27T08:51:42.381Z,54.22
2019-06-27T08:54:10.739Z,53.61
2019-06-27T08:56:41.069Z,53.15
2019-06-27T09:02:09.032Z,52.17
2019-06-27T09:04:33.322Z,51.91
2019-06-27T09:07:05.893Z,52.32
2019-06-27T09:09:42.470Z,52.51
2019-06-27T09:12:10.825Z,54.34
2019-06-27T09:14:45.090Z,54.69
2019-06-27T09:17:13.480Z,53.96
2019-06-27T09:19:54.526Z,49.94
2019-06-27T09:22:22.916Z,51.67
2019-06-27T09:24:59.386Z,49.74
2019-06-27T09:27:34.365Z,47.85
2019-06-27T09:30:02.829Z,45.72
2019-06-27T09:32:32.264Z,43.97
2019-06-27T09:35:06.268Z,42.99
2019-06-27T09:37:34.614Z,41.58
2019-06-27T09:40:13.063Z,43.17
2019-06-27T09:42:41.420Z,39.97
2019-06-27T09:45:13.499Z,38.53
2019-06-27T09:47:41.849Z,38.15
2019-06-27T09:50:25.011Z,38.30
2019-06-27T09:52:53.357Z,37.78
2019-06-27T09:55:26.112Z,38.74
2019-06-27T09:57:54.480Z,38.32
2019-06-27T10:00:33.683Z,40.14
2019-06-27T10:03:02.155Z,41.94
2019-06-27T10:05:40.331Z,42.95
2019-06-27T10:08:17.175Z,45.49
2019-06-27T10:10:45.539Z,45.58
2019-06-27T10:13:15.792Z,45.55
2019-06-27T10:15:44.147Z,43.64
2019-06-27T10:18:24.915Z,45.41
2019-06-27T10:20:53.271Z,45.13
2019-06-27T10:23:21.638Z,45.17
2019-06-27T10:25:49.987Z,45.81
2019-06-27T10:28:18.383Z,44.52
2019-06-27T10:30:49.128Z,42.19
2019-06-27T10:33:15.375Z,42.12
2019-06-27T10:35:43.722Z,44.42
2019-06-27T10:38:15.626Z,44.42
2019-06-27T10:40:43.982Z,45.59
2019-06-27T10:43:15.356Z,44.52
2019-06-27T10:45:43.780Z,43.77
2019-06-27T10:48:23.944Z,45.31
2019-06-27T10:50:54.613Z,45.39
2019-06-27T10:55:55.094Z,48.65
2019-06-27T10:58:24.352Z,46.43
2019-06-27T11:00:52.707Z,48.03
2019-06-27T11:03:38.418Z,46.80
2019-06-27T11:08:38.094Z,41.24
2019-06-27T11:11:06.475Z,39.56
2019-06-27T11:13:35.878Z,37.14
2019-06-27T11:18:38.593Z,34.94
2019-06-27T11:21:06.961Z,36.32
2019-06-27T11:23:35.314Z,34.11
2019-06-27T11:26:04.736Z,32.03
2019-06-27T11:28:37.536Z,32.78
2019-06-27T11:31:06.681Z,31.43
2019-06-27T11:33:46.857Z,32.24
2019-06-27T11:36:15.237Z,31.68
2019-06-27T11:38:43.891Z,32.90
2019-06-27T11:41:12.840Z,32.67
2019-06-27T11:43:43.225Z,31.24
2019-06-27T11:46:12.214Z,30.54
2019-06-27T11:48:42.551Z,30.95
2019-06-27T11:51:10.901Z,30.06
2019-06-27T11:53:39.263Z,29.06
2019-06-27T11:56:07.613Z,30.37
2019-06-27T11:58:35.967Z,31.77
2019-06-27T12:01:05.238Z,32.17
2019-06-27T12:03:49.443Z,34.02
2019-06-27T12:06:07.907Z,36.21
2019-06-27T12:08:36.362Z,35.33
2019-06-27T12:11:05.529Z,32.29
2019-06-27T12:13:39.627Z,31.03
2019-06-27T12:16:07.962Z,33.76
2019-06-27T12:18:39.740Z,31.39
2019-06-27T12:21:10.007Z,29.49
2019-06-27T12:23:38.359Z,29.17
2019-06-27T12:26:06.703Z,30.76
2019-06-27T12:31:20.130Z,30.38
2019-06-27T12:34:07.227Z,29.60
2019-06-27T12:36:37.838Z,29.67
2019-06-27T12:39:06.190Z,28.21
2019-06-27T12:41:36.490Z,26.78
2019-06-27T12:44:04.881Z,28.55
2019-06-27T12:46:50.919Z,29.48
2019-06-27T12:49:19.285Z,28.72
2019-06-27T12:51:49.566Z,30.99
2019-06-27T12:54:17.914Z,27.54
2019-06-27T12:56:46.248Z,26.74
2019-06-27T12:59:14.616Z,28.18
2019-06-27T13:01:53.983Z,28.20
2019-06-27T13:04:24.130Z,33.37
2019-06-27T13:09:25.015Z,31.52
2019-06-27T13:11:53.293Z,31.85
2019-06-27T13:14:21.645Z,32.26
2019-06-27T13:16:53.703Z,34.12
2019-06-27T13:19:22.046Z,34.64
2019-06-27T13:21:51.311Z,32.60
2019-06-27T13:24:19.694Z,30.59
2019-06-27T13:26:54.755Z,34.02
2019-06-27T13:29:27.770Z,31.23
2019-06-27T13:32:02.390Z,28.38
2019-06-27T13:34:40.495Z,29.54
2019-06-27T13:37:03.670Z,32.50
2019-06-27T13:42:10.337Z,30.50
2019-06-27T13:44:51.346Z,27.70
2019-06-27T13:47:20.371Z,28.49
2019-06-27T13:49:51.598Z,29.88
2019-06-27T13:52:19.947Z,31.34
2019-06-27T13:54:48.316Z,33.13
2019-06-27T13:57:16.720Z,32.15
2019-06-27T13:59:46.071Z,30.07
2019-06-27T14:02:14.452Z,32.68
2019-06-27T14:04:56.141Z,31.40
2019-06-27T14:07:30.013Z,28.87
2019-06-27T14:09:58.374Z,32.17
2019-06-27T14:12:26.736Z,32.53
2019-06-27T14:14:59.663Z,32.93
2019-06-27T14:17:24.516Z,31.29
2019-06-27T14:19:52.950Z,33.08
2019-06-27T14:22:33.439Z,33.50
2019-06-27T14:24:53.818Z,35.27
2019-06-27T14:27:23.134Z,33.92
2019-06-27T14:29:51.520Z,31.74
2019-06-27T14:32:19.901Z,30.71
2019-06-27T14:34:48.267Z,29.75
2019-06-27T14:37:22.058Z,31.35
2019-06-27T14:39:50.451Z,31.41
2019-06-27T14:42:18.802Z,33.71
2019-06-27T14:44:47.154Z,37.33
2019-06-27T14:47:26.134Z,36.85
2019-06-27T14:49:54.498Z,39.03
2019-06-27T14:52:22.852Z,35.28
2019-06-27T14:54:51.204Z,35.60
2019-06-27T14:57:19.564Z,34.52
2019-06-27T14:59:47.920Z,36.09
2019-06-27T15:04:52.821Z,34.08
2019-06-27T15:07:21.080Z,35.81
2019-06-27T15:09:49.428Z,36.15
2019-06-27T15:12:17.783Z,34.04
2019-06-27T15:14:46.128Z,32.25
2019-06-27T15:17:18.346Z,32.62
2019-06-27T15:19:47.590Z,31.22
2019-06-27T15:22:15.961Z,33.44
2019-06-27T15:24:44.322Z,31.75
2019-06-27T15:27:16.289Z,31.05
2019-06-27T15:29:44.652Z,32.16
2019-06-27T15:32:13.001Z,34.63
2019-06-27T15:34:41.378Z,31.90
2019-06-27T15:37:09.751Z,31.93
2019-06-27T15:39:38.108Z,32.83
2019-06-27T15:42:08.454Z,31.49
2019-06-27T15:44:36.826Z,33.76
2019-06-27T15:47:05.227Z,32.21
2019-06-27T15:49:33.731Z,31.24
2019-06-27T15:52:06.221Z,32.42
2019-06-27T15:54:36.652Z,34.16
2019-06-27T15:57:05.035Z,33.56
2019-06-27T15:59:33.377Z,34.14
2019-06-27T16:04:37.336Z,35.49
2019-06-27T16:09:52.022Z,35.17
2019-06-27T16:12:20.405Z,36.99
2019-06-27T16:14:48.775Z,36.69
2019-06-27T16:17:17.156Z,34.37
2019-06-27T16:19:45.491Z,32.86
2019-06-27T16:22:19.520Z,33.32
2019-06-27T16:24:48.073Z,33.79
2019-06-27T16:27:21.184Z,35.62
2019-06-27T16:29:49.597Z,34.77
2019-06-27T16:32:18.317Z,36.44
2019-06-27T16:34:46.657Z,38.27
2019-06-27T16:39:49.196Z,42.54
2019-06-27T16:42:21.434Z,43.85
2019-06-27T16:44:49.780Z,44.64
2019-06-27T16:47:20.158Z,44.21
2019-06-27T16:49:49.229Z,46.10
2019-06-27T16:52:21.951Z,45.68
2019-06-27T16:54:50.301Z,47.74
2019-06-27T16:59:53.011Z,45.90
2019-06-27T17:02:21.370Z,48.27
2019-06-27T17:04:49.738Z,48.82
2019-06-27T17:07:22.513Z,49.92
2019-06-27T17:09:50.873Z,52.35
2019-06-27T17:12:24.314Z,49.42
2019-06-27T17:14:52.673Z,50.43
2019-06-27T17:20:02.441Z,51.83
2019-06-27T17:22:30.793Z,51.38
2019-06-27T17:25:01.102Z,53.45
2019-06-27T17:27:36.697Z,53.16
2019-06-27T17:30:12.552Z,54.43
2019-06-27T17:32:42.912Z,53.19
2019-06-27T17:35:11.264Z,52.06
2019-06-27T17:37:39.675Z,53.31
2019-06-27T17:40:10.110Z,51.88
2019-06-27T17:42:47.469Z,53.01
2019-06-27T17:45:15.822Z,52.79
2019-06-27T17:47:44.185Z,52.87
2019-06-27T17:50:12.542Z,54.60
2019-06-27T17:52:52.077Z,51.69
2019-06-27T17:55:20.439Z,49.94
2019-06-27T17:57:48.842Z,50.02
2019-06-27T18:00:17.662Z,50.08
2019-06-27T18:02:46.960Z,51.26
2019-06-27T18:05:18.307Z,50.04
2019-06-27T18:07:44.745Z,49.10
2019-06-27T18:10:13.118Z,49.86
2019-06-27T18:12:43.381Z,49.49
2019-06-27T18:15:11.760Z,50.69
2019-06-27T18:17:47.344Z,50.40
2019-06-27T18:20:16.515Z,50.21
2019-06-27T18:22:51.509Z,50.15
2019-06-27T18:25:21.583Z,49.43
2019-06-27T18:27:49.910Z,49.35
2019-06-27T18:30:19.283Z,49.98
2019-06-27T18:32:53.820Z,49.37
2019-06-27T18:35:39.287Z,48.86
2019-06-27T18:38:07.621Z,49.02
2019-06-27T18:40:38.745Z,48.29
2019-06-27T18:43:07.101Z,48.39
2019-06-27T18:48:09.737Z,49.00
2019-06-27T18:53:12.469Z,48.99
2019-06-27T18:55:45.177Z,49.91
2019-06-27T18:58:13.517Z,50.30
2019-06-27T19:00:41.864Z,50.80
2019-06-27T19:03:10.200Z,50.57
2019-06-27T19:05:50.822Z,50.37
2019-06-27T19:08:19.189Z,50.11
2019-06-27T19:13:21.824Z,49.22
2019-06-27T19:18:35.113Z,49.33
2019-06-27T19:21:03.472Z,49.20
2019-06-27T19:23:37.134Z,48.65
2019-06-27T19:26:05.483Z,49.00
2019-06-27T19:28:33.825Z,48.68
2019-06-27T19:31:02.206Z,48.51
2019-06-27T19:33:30.533Z,48.83
2019-06-27T19:35:58.919Z,48.39
2019-06-27T19:38:27.252Z,48.52
2019-06-27T19:43:34.976Z,48.16
2019-06-27T19:46:03.354Z,48.06
2019-06-27T19:48:31.692Z,47.28
2019-06-27T19:51:01.937Z,47.49
2019-06-27T19:53:30.425Z,48.17
2019-06-27T19:56:00.577Z,48.05
2019-06-27T20:01:03.289Z,48.03
2019-06-27T20:06:08.037Z,47.56
2019-06-27T20:08:42.146Z,47.99
2019-06-27T20:11:10.516Z,47.98
2019-06-27T20:13:39.759Z,48.04
2019-06-27T20:16:08.101Z,48.30
2019-06-27T20:18:36.521Z,48.67
2019-06-27T20:21:04.853Z,49.09
2019-06-27T20:23:33.226Z,49.28
2019-06-27T20:26:03.804Z,50.00
2019-06-27T20:31:04.270Z,49.57
2019-06-27T20:33:44.094Z,49.79
2019-06-27T20:36:12.420Z,50.58
2019-06-27T20:38:50.986Z,51.87
2019-06-27T20:41:19.337Z,52.43
2019-06-27T20:43:51.414Z,53.45
2019-06-27T20:48:58.053Z,54.69
2019-06-27T20:54:00.728Z,55.87
2019-06-27T20:56:30.480Z,55.53
2019-06-27T20:58:58.314Z,55.65
2019-06-27T21:01:26.705Z,55.90
2019-06-27T21:03:58.792Z,56.17
2019-06-27T21:06:27.132Z,56.44
2019-06-27T21:08:55.509Z,58.15
2019-06-27T21:11:23.852Z,58.25
2019-06-27T21:13:59.772Z,58.70
2019-06-27T21:16:28.113Z,59.36
2019-06-27T21:18:56.534Z,60.41
2019-06-27T21:21:24.864Z,60.05
2019-06-27T21:23:58.962Z,59.82
2019-06-27T21:26:27.310Z,60.32
2019-06-27T21:28:55.653Z,60.80
2019-06-27T21:31:24.953Z,61.55
2019-06-27T21:33:53.330Z,60.86
2019-06-27T21:36:25.114Z,61.86
2019-06-27T21:39:06.697Z,63.49
2019-06-27T21:41:21.843Z,63.51
2019-06-27T21:43:50.197Z,63.93
2019-06-27T21:46:20.447Z,66.26
2019-06-27T21:51:23.053Z,66.15
2019-06-27T21:53:51.397Z,65.83
2019-06-27T21:56:20.638Z,65.35
2019-06-27T21:58:48.981Z,66.47
2019-06-27T22:03:51.711Z,64.22
2019-06-27T22:06:19.995Z,67.17
2019-06-27T22:08:48.344Z,67.22
2019-06-27T22:13:50.903Z,67.06
2019-06-27T22:18:53.546Z,67.44
2019-06-27T22:21:21.886Z,66.91
2019-06-27T22:23:50.233Z,65.78
2019-06-27T22:26:18.579Z,65.02
2019-06-27T22:28:46.917Z,64.60
2019-06-27T22:31:15.306Z,64.54
2019-06-27T22:33:44.694Z,64.36
2019-06-27T22:36:13.033Z,65.42
2019-06-27T22:38:46.787Z,65.88
2019-06-27T22:41:20.744Z,66.76
2019-06-27T22:43:54.641Z,68.55
2019-06-27T22:46:28.481Z,69.33
2019-06-27T22:48:58.595Z,68.84
2019-06-27T22:54:22.428Z,70.40
2019-06-27T22:56:50.802Z,71.45
2019-06-27T22:59:19.153Z,70.83
2019-06-27T23:01:47.526Z,69.80
2019-06-27T23:04:16.824Z,70.09
2019-06-27T23:06:45.165Z,69.43
2019-06-27T23:09:13.520Z,71.07
2019-06-27T23:11:41.916Z,72.76
2019-06-27T23:14:12.191Z,75.67
2019-06-27T23:16:40.532Z,73.43
2019-06-27T23:19:11.552Z,71.06
2019-06-27T23:21:37.239Z,70.80
2019-06-27T23:24:06.509Z,71.18
2019-06-27T23:26:34.857Z,69.66
2019-06-27T23:29:03.268Z,69.17
2019-06-27T23:31:31.627Z,68.62
2019-06-27T23:34:00.005Z,68.72
2019-06-27T23:39:02.674Z,69.48
2019-06-27T23:41:31.009Z,70.25
2019-06-27T23:43:59.386Z,70.61
2019-06-27T23:46:43.387Z,69.70
2019-06-27T23:49:11.954Z,69.50
2019-06-27T23:51:40.300Z,70.11
2019-06-27T23:54:08.680Z,72.61
2019-06-27T23:56:37.042Z,71.88
2019-06-27T23:59:05.388Z,73.17
